createdAt,value
2022-09-20T00:01:10.146Z,101232.63
2022-09-20T00:03:39.325Z,101224.88
2022-09-20T00:06:09.011Z,101222.19
2022-09-20T00:08:37.107Z,101229.28
2022-09-20T00:11:06.631Z,101223.19
2022-09-20T00:13:35.991Z,101234.22
2022-09-20T00:16:06.466Z,101231.03
2022-09-20T00:18:35.817Z,101225.47
2022-09-20T00:21:04.545Z,101227.97
2022-09-20T00:23:32.732Z,101226.28
2022-09-20T00:26:01.982Z,101225.28
2022-09-20T00:28:30.697Z,101225.00
2022-09-20T00:30:58.527Z,101217.59
2022-09-20T00:33:47.091Z,101219.13
2022-09-20T00:36:16.163Z,101227.53
2022-09-20T00:38:43.990Z,101226.84
2022-09-20T00:41:12.316Z,101230.59
2022-09-20T00:43:41.716Z,101228.94
2022-09-20T00:46:22.058Z,101233.59
2022-09-20T00:48:51.986Z,101228.25
2022-09-20T00:51:27.868Z,101227.03
2022-09-20T00:53:59.155Z,101222.00
2022-09-20T00:56:31.889Z,101232.56
2022-09-20T00:59:07.266Z,101231.34
2022-09-20T01:01:35.232Z,101237.69
2022-09-20T01:04:04.695Z,101238.44
2022-09-20T01:06:34.804Z,101238.81
2022-09-20T01:09:07.600Z,101241.13
2022-09-20T01:11:36.495Z,101232.91
2022-09-20T01:14:04.238Z,101241.03
2022-09-20T01:16:33.789Z,101238.81
2022-09-20T01:19:06.011Z,101234.50
2022-09-20T01:21:35.609Z,101241.81
2022-09-20T01:24:14.123Z,101246.94
2022-09-20T01:26:58.991Z,101245.44
2022-09-20T01:29:40.969Z,101247.03
2022-09-20T01:32:13.721Z,101239.38
2022-09-20T01:34:47.694Z,101247.75
2022-09-20T01:37:23.274Z,101239.09
2022-09-20T01:40:00.208Z,101237.78
2022-09-20T01:42:33.903Z,101241.81
2022-09-20T01:45:12.034Z,101247.66
2022-09-20T01:47:44.968Z,101243.84
2022-09-20T01:50:18.778Z,101248.72
2022-09-20T01:53:10.617Z,101239.19
2022-09-20T01:55:52.509Z,101240.50
2022-09-20T01:59:02.025Z,101239.28
2022-09-20T02:02:08.712Z,101243.94
2022-09-20T02:05:11.548Z,101251.03
2022-09-20T02:07:55.696Z,101252.88
2022-09-20T02:10:55.904Z,101247.38
2022-09-20T02:13:31.076Z,101254.56
2022-09-20T02:16:30.142Z,101241.84
2022-09-20T02:19:16.951Z,101251.06
2022-09-20T02:21:53.409Z,101258.00
2022-09-20T02:24:30.222Z,101257.06
2022-09-20T02:27:10.424Z,101256.69
2022-09-20T02:29:49.475Z,101263.69
2022-09-20T02:32:30.117Z,101255.56
2022-09-20T02:35:15.109Z,101259.22
2022-09-20T02:37:55.895Z,101268.50
2022-09-20T02:40:39.222Z,101263.06
2022-09-20T02:43:17.790Z,101263.28
2022-09-20T02:45:55.088Z,101264.81
2022-09-20T02:48:28.536Z,101277.53
2022-09-20T02:51:06.718Z,101272.50
2022-09-20T02:53:41.859Z,101274.53
2022-09-20T02:56:18.435Z,101283.13
2022-09-20T02:58:56.307Z,101275.00
2022-09-20T03:01:36.308Z,101275.72
2022-09-20T03:04:19.354Z,101275.06
2022-09-20T03:06:56.073Z,101278.72
2022-09-20T03:09:34.843Z,101275.13
2022-09-20T03:12:11.290Z,101281.28
2022-09-20T03:14:46.089Z,101268.50
2022-09-20T03:17:24.087Z,101277.44
2022-09-20T03:20:10.208Z,101273.53
2022-09-20T03:22:53.007Z,101283.16
2022-09-20T03:25:35.205Z,101271.41
2022-09-20T03:28:14.250Z,101281.66
2022-09-20T03:30:53.785Z,101283.16
2022-09-20T03:33:31.054Z,101279.25
2022-09-20T03:36:15.038Z,101285.31
2022-09-20T03:39:01.069Z,101285.78
2022-09-20T03:41:45.741Z,101285.31
2022-09-20T03:44:38.120Z,101285.97
2022-09-20T03:47:25.379Z,101288.84
2022-09-20T03:50:12.122Z,101290.88
2022-09-20T03:53:02.927Z,101284.28
2022-09-20T03:56:18.672Z,101287.66
2022-09-20T03:59:01.527Z,101292.44
2022-09-20T04:01:46.604Z,101294.59
2022-09-20T04:04:24.294Z,101295.53
2022-09-20T04:07:06.576Z,101298.53
2022-09-20T04:09:57.938Z,101298.97
2022-09-20T04:12:34.169Z,101294.66
2022-09-20T04:15:17.264Z,101293.38
2022-09-20T04:17:53.048Z,101298.16
2022-09-20T04:20:29.438Z,101298.88
2022-09-20T04:23:00.891Z,101304.41
2022-09-20T04:25:36.159Z,101305.13
2022-09-20T04:28:13.284Z,101306.81
2022-09-20T04:30:43.912Z,101309.53
2022-09-20T04:33:19.395Z,101309.72
2022-09-20T04:36:13.819Z,101310.34
2022-09-20T04:38:42.199Z,101312.72
2022-09-20T04:41:29.469Z,101310.28
2022-09-20T04:44:22.136Z,101319.72
2022-09-20T04:47:44.333Z,101326.16
2022-09-20T04:50:49.398Z,101328.69
2022-09-20T04:53:44.429Z,101329.31
2022-09-20T04:56:21.648Z,101333.19
2022-09-20T04:58:53.467Z,101336.19
2022-09-20T05:02:08.974Z,101334.59
2022-09-20T05:05:20.475Z,101334.41
2022-09-20T05:08:26.450Z,101335.59
2022-09-20T05:11:21.340Z,101341.22
2022-09-20T05:14:17.002Z,101334.50
2022-09-20T05:17:02.884Z,101344.94
2022-09-20T05:19:39.477Z,101341.94
2022-09-20T05:22:37.444Z,101343.25
2022-09-20T05:25:26.696Z,101346.25
2022-09-20T05:28:02.802Z,101349.81
2022-09-20T05:30:37.863Z,101354.69
2022-09-20T05:33:20.325Z,101353.47
2022-09-20T05:36:03.201Z,101362.63
2022-09-20T05:38:44.217Z,101358.13
2022-09-20T05:41:24.268Z,101366.63
2022-09-20T05:43:59.406Z,101365.31
2022-09-20T05:46:41.963Z,101370.34
2022-09-20T05:49:19.776Z,101371.22
2022-09-20T05:52:03.158Z,101375.41
2022-09-20T05:54:48.287Z,101370.44
2022-09-20T05:57:28.965Z,101378.78
2022-09-20T06:00:04.090Z,101383.16
2022-09-20T06:02:41.114Z,101384.28
2022-09-20T06:05:16.475Z,101395.81
2022-09-20T06:08:17.812Z,101401.75
2022-09-20T06:11:04.243Z,101396.81
2022-09-20T06:13:46.328Z,101392.59
2022-09-20T06:16:22.812Z,101397.28
2022-09-20T06:19:05.965Z,101396.91
2022-09-20T06:21:43.118Z,101396.72
2022-09-20T06:24:22.439Z,101390.72
2022-09-20T06:26:54.766Z,101396.03
2022-09-20T06:29:29.472Z,101397.44
2022-09-20T06:31:57.112Z,101398.03
2022-09-20T06:34:24.997Z,101391.50
2022-09-20T06:37:18.675Z,101399.53
2022-09-20T06:40:11.837Z,101397.78
2022-09-20T06:42:40.742Z,101405.72
2022-09-20T06:45:08.917Z,101408.72
2022-09-20T06:47:38.851Z,101407.31
2022-09-20T06:50:07.556Z,101413.03
2022-09-20T06:52:35.540Z,101409.75
2022-09-20T06:55:07.309Z,101415.47
2022-09-20T06:57:38.250Z,101417.16
2022-09-20T07:00:11.444Z,101427.44
2022-09-20T07:02:39.072Z,101427.25
2022-09-20T07:05:10.674Z,101427.06
2022-09-20T07:07:38.220Z,101422.47
2022-09-20T07:10:06.661Z,101427.72
2022-09-20T07:12:35.010Z,101425.19
2022-09-20T07:15:02.632Z,101424.38
2022-09-20T07:17:31.498Z,101434.25
2022-09-20T07:19:59.803Z,101434.44
2022-09-20T07:22:27.431Z,101430.53
2022-09-20T07:24:55.160Z,101449.44
2022-09-20T07:27:25.497Z,101442.88
2022-09-20T07:29:55.094Z,101453.25
2022-09-20T07:32:22.700Z,101443.63
2022-09-20T07:34:51.642Z,101454.59
2022-09-20T07:37:19.305Z,101450.00
2022-09-20T07:39:47.095Z,101452.25
2022-09-20T07:42:15.041Z,101451.22
2022-09-20T07:44:43.241Z,101450.81
2022-09-20T07:47:12.470Z,101454.00
2022-09-20T07:49:40.027Z,101454.84
2022-09-20T07:52:10.312Z,101465.06
2022-09-20T07:54:37.932Z,101460.94
2022-09-20T07:57:05.671Z,101467.66
2022-09-20T07:59:33.219Z,101471.78
2022-09-20T08:02:00.932Z,101477.06
2022-09-20T08:04:28.535Z,101467.31
2022-09-20T08:06:58.682Z,101471.84
2022-09-20T08:09:27.656Z,101473.31
2022-09-20T08:11:56.414Z,101479.81
2022-09-20T08:14:24.465Z,101478.34
2022-09-20T08:16:52.552Z,101490.50
2022-09-20T08:19:22.647Z,101486.53
2022-09-20T08:21:51.404Z,101481.84
2022-09-20T08:24:18.974Z,101479.00
2022-09-20T08:26:49.173Z,101483.81
2022-09-20T08:29:41.716Z,101488.59
2022-09-20T08:32:11.337Z,101480.56
2022-09-20T08:34:39.544Z,101489.94
2022-09-20T08:37:07.298Z,101495.59
2022-09-20T08:42:33.859Z,101503.06
2022-09-20T08:45:06.541Z,101505.91
2022-09-20T08:47:38.155Z,101505.38
2022-09-20T08:50:09.835Z,101510.81
2022-09-20T08:52:42.285Z,101508.75
2022-09-20T08:55:16.564Z,101508.31
2022-09-20T08:57:49.946Z,101509.66
2022-09-20T09:00:19.720Z,101515.44
2022-09-20T09:02:47.996Z,101514.50
2022-09-20T09:05:31.410Z,101522.19
2022-09-20T09:08:00.754Z,101520.59
2022-09-20T09:10:31.599Z,101527.25
2022-09-20T09:13:00.672Z,101520.38
2022-09-20T09:15:32.002Z,101525.91
2022-09-20T09:18:00.167Z,101533.22
2022-09-20T09:20:28.165Z,101524.66
2022-09-20T09:23:04.801Z,101529.84
2022-09-20T09:25:34.231Z,101527.38
2022-09-20T09:28:13.150Z,101532.34
2022-09-20T09:30:42.855Z,101529.09
2022-09-20T09:33:22.496Z,101528.81
2022-09-20T09:35:59.022Z,101534.06
2022-09-20T09:38:28.818Z,101525.34
2022-09-20T09:40:58.498Z,101536.28
2022-09-20T09:43:30.135Z,101533.31
2022-09-20T09:46:18.322Z,101532.53
2022-09-20T09:48:49.764Z,101518.16
2022-09-20T09:51:19.498Z,101522.13
2022-09-20T09:53:49.979Z,101525.72
2022-09-20T09:56:33.338Z,101527.88
2022-09-20T09:59:17.992Z,101527.03
2022-09-20T10:01:55.479Z,101523.69
2022-09-20T10:04:31.018Z,101520.56
2022-09-20T10:07:09.125Z,101527.09
2022-09-20T10:09:56.981Z,101528.56
2022-09-20T10:12:48.580Z,101521.31
2022-09-20T10:15:29.734Z,101525.56
2022-09-20T10:18:11.266Z,101514.94
2022-09-20T10:20:53.286Z,101517.94
2022-09-20T10:24:03.232Z,101519.63
2022-09-20T10:26:39.672Z,101516.75
2022-09-20T10:29:17.976Z,101509.47
2022-09-20T10:31:57.184Z,101509.97
2022-09-20T10:34:54.945Z,101502.78
2022-09-20T10:37:33.067Z,101505.78
2022-09-20T10:40:14.326Z,101510.03
2022-09-20T10:43:05.704Z,101505.38
2022-09-20T10:48:35.379Z,101504.94
2022-09-20T10:51:08.169Z,101505.75
2022-09-20T10:53:44.647Z,101505.75
2022-09-20T10:56:23.932Z,101509.09
2022-09-20T10:59:07.517Z,101502.47
2022-09-20T11:01:42.405Z,101500.25
2022-09-20T11:04:37.549Z,101503.81
2022-09-20T11:07:13.771Z,101496.97
2022-09-20T11:09:46.070Z,101502.03
2022-09-20T11:12:28.814Z,101498.88
2022-09-20T11:15:00.674Z,101504.97
2022-09-20T11:17:33.722Z,101506.03
2022-09-20T11:20:09.473Z,101500.56
2022-09-20T11:22:44.146Z,101502.63
2022-09-20T11:25:21.641Z,101508.03
2022-09-20T11:27:56.118Z,101506.31
2022-09-20T11:30:24.948Z,101506.09
2022-09-20T11:32:56.170Z,101511.75
2022-09-20T11:35:31.407Z,101514.25
2022-09-20T11:38:11.122Z,101516.16
2022-09-20T11:40:44.179Z,101511.38
2022-09-20T11:43:14.129Z,101513.25
2022-09-20T11:45:44.045Z,101515.91
2022-09-20T11:48:19.321Z,101511.13
2022-09-20T11:51:08.873Z,101517.22
2022-09-20T11:54:09.088Z,101517.41
2022-09-20T11:56:36.783Z,101514.47
2022-09-20T11:59:07.202Z,101511.78
2022-09-20T12:01:37.516Z,101505.16
2022-09-20T12:04:32.985Z,101510.25
2022-09-20T12:07:10.353Z,101511.47
2022-09-20T12:09:41.231Z,101519.84
2022-09-20T12:12:22.237Z,101515.91
2022-09-20T12:14:55.879Z,101517.56
2022-09-20T12:18:04.342Z,101519.09
2022-09-20T12:21:01.255Z,101515.97
2022-09-20T12:24:08.609Z,101506.94
2022-09-20T12:26:41.955Z,101511.31
2022-09-20T12:29:52.858Z,101511.16
2022-09-20T12:32:43.334Z,101513.44
2022-09-20T12:35:57.669Z,101513.88
2022-09-20T12:38:38.431Z,101510.50
2022-09-20T12:41:10.057Z,101515.09
2022-09-20T12:43:50.522Z,101512.75
2022-09-20T12:46:27.027Z,101513.19
2022-09-20T12:49:48.219Z,101509.81
2022-09-20T12:52:47.077Z,101516.78
2022-09-20T12:55:32.452Z,101510.28
2022-09-20T12:58:04.188Z,101511.75
2022-09-20T13:00:39.463Z,101512.50
2022-09-20T13:03:13.511Z,101503.81
2022-09-20T13:05:45.940Z,101509.41
2022-09-20T13:08:20.174Z,101509.97
2022-09-20T13:10:51.064Z,101505.91
2022-09-20T13:13:30.252Z,101504.63
2022-09-20T13:16:01.189Z,101510.13
2022-09-20T13:18:30.245Z,101505.56
2022-09-20T13:21:00.290Z,101505.78
2022-09-20T13:23:30.345Z,101530.31
2022-09-20T13:25:59.441Z,101531.59
2022-09-20T13:28:34.154Z,101535.88
2022-09-20T13:31:24.110Z,101540.09
2022-09-20T13:33:52.524Z,101544.72
2022-09-20T13:36:27.453Z,101543.47
2022-09-20T13:38:57.989Z,101547.66
2022-09-20T13:41:30.017Z,101550.97
2022-09-20T13:43:57.989Z,101559.41
2022-09-20T13:46:32.237Z,101548.91
2022-09-20T13:49:14.656Z,101548.66
2022-09-20T13:51:42.405Z,101553.31
2022-09-20T13:54:22.351Z,101554.34
2022-09-20T13:56:51.653Z,101546.41
2022-09-20T13:59:20.166Z,101552.25
2022-09-20T14:01:52.119Z,101552.44
2022-09-20T14:04:23.711Z,101549.94
2022-09-20T14:06:54.547Z,101550.16
2022-09-20T14:09:28.606Z,101553.09
2022-09-20T14:11:57.228Z,101535.91
2022-09-20T14:14:26.108Z,101553.72
2022-09-20T14:16:57.509Z,101546.19
2022-09-20T14:19:30.650Z,101550.59
2022-09-20T14:21:59.923Z,101552.69
2022-09-20T14:24:31.821Z,101555.00
2022-09-20T14:27:06.540Z,101555.63
2022-09-20T14:29:40.900Z,101548.69
2022-09-20T14:32:17.397Z,101559.59
2022-09-20T14:34:46.942Z,101552.00
2022-09-20T14:37:18.883Z,101554.34
2022-09-20T14:39:50.282Z,101548.91
2022-09-20T14:42:23.906Z,101553.09
2022-09-20T14:44:53.387Z,101549.72
2022-09-20T14:47:29.835Z,101552.47
2022-09-20T14:49:59.874Z,101554.16
2022-09-20T14:52:38.871Z,101557.31
2022-09-20T14:55:21.345Z,101557.31
2022-09-20T14:57:49.154Z,101556.44
2022-09-20T15:00:20.594Z,101550.59
2022-09-20T15:02:49.613Z,101553.91
2022-09-20T15:05:21.401Z,101553.69
2022-09-20T15:07:49.015Z,101549.28
2022-09-20T15:10:16.810Z,101552.22
2022-09-20T15:12:44.407Z,101553.69
2022-09-20T15:15:17.342Z,101550.97
2022-09-20T15:17:46.809Z,101548.47
2022-09-20T15:20:23.209Z,101546.16
2022-09-20T15:22:51.839Z,101552.66
2022-09-20T15:25:21.408Z,101552.44
2022-09-20T15:27:50.831Z,101557.66
2022-09-20T15:30:20.870Z,101559.78
2022-09-20T15:32:48.453Z,101556.84
2022-09-20T15:35:17.445Z,101558.28
2022-09-20T15:37:45.312Z,101563.06
2022-09-20T15:40:13.444Z,101568.31
2022-09-20T15:42:41.717Z,101557.22
2022-09-20T15:45:11.032Z,101564.34
2022-09-20T15:47:39.400Z,101561.03
2022-09-20T15:50:08.480Z,101562.28
2022-09-20T15:52:41.451Z,101556.81
2022-09-20T15:55:09.956Z,101558.47
2022-09-20T15:57:39.495Z,101559.31
2022-09-20T16:00:08.634Z,101559.53
2022-09-20T16:02:36.830Z,101562.06
2022-09-20T16:05:05.835Z,101567.31
2022-09-20T16:07:33.387Z,101572.78
2022-09-20T16:10:02.452Z,101568.56
2022-09-20T16:12:30.049Z,101575.03
2022-09-20T16:14:57.649Z,101577.13
2022-09-20T16:17:45.302Z,101566.59
2022-09-20T16:20:11.994Z,101576.84
2022-09-20T16:22:39.642Z,101574.47
2022-09-20T16:25:09.409Z,101581.00
2022-09-20T16:27:37.100Z,101586.38
2022-09-20T16:30:05.669Z,101584.72
2022-09-20T16:32:33.326Z,101585.56
2022-09-20T16:35:03.816Z,101587.66
2022-09-20T16:37:32.664Z,101597.06
2022-09-20T16:40:00.414Z,101595.38
2022-09-20T16:42:29.392Z,101592.66
2022-09-20T16:44:57.012Z,101598.31
2022-09-20T16:47:26.161Z,101604.59
2022-09-20T16:49:54.437Z,101598.13
2022-09-20T16:52:22.439Z,101610.47
2022-09-20T16:54:50.121Z,101606.84
2022-09-20T16:57:18.345Z,101610.41
2022-09-20T16:59:47.888Z,101621.31
2022-09-20T17:02:15.693Z,101616.91
2022-09-20T17:04:43.570Z,101619.22
2022-09-20T17:07:11.413Z,101616.91
2022-09-20T17:09:39.341Z,101624.88
2022-09-20T17:12:09.382Z,101627.59
2022-09-20T17:14:38.101Z,101627.59
2022-09-20T17:17:07.025Z,101627.81
2022-09-20T17:19:34.734Z,101634.47
2022-09-20T17:22:02.581Z,101632.78
2022-09-20T17:24:30.476Z,101637.75
2022-09-20T17:26:59.150Z,101647.25
2022-09-20T17:29:27.578Z,101649.78
2022-09-20T17:31:59.857Z,101649.34
2022-09-20T17:34:29.801Z,101655.63
2022-09-20T17:36:57.581Z,101657.28
2022-09-20T17:39:25.402Z,101656.66
2022-09-20T17:41:53.031Z,101661.47
2022-09-20T17:44:21.443Z,101667.34
2022-09-20T17:46:50.870Z,101680.75
2022-09-20T17:49:20.479Z,101677.41
2022-09-20T17:51:51.388Z,101679.09
2022-09-20T17:54:20.100Z,101688.50
2022-09-20T17:56:50.214Z,101683.25
2022-09-20T17:59:19.351Z,101684.91
2022-09-20T18:01:49.369Z,101693.75
2022-09-20T18:04:17.623Z,101688.94
2022-09-20T18:06:47.403Z,101692.13
2022-09-20T18:09:18.323Z,101700.94
2022-09-20T18:11:49.210Z,101706.38
2022-09-20T18:14:17.817Z,101701.31
2022-09-20T18:16:45.437Z,101709.31
2022-09-20T18:19:14.098Z,101715.78
2022-09-20T18:21:41.684Z,101714.88
2022-09-20T18:24:10.995Z,101711.88
2022-09-20T18:26:40.514Z,101710.59
2022-09-20T18:29:11.059Z,101721.47
2022-09-20T18:31:42.836Z,101722.53
2022-09-20T18:34:17.869Z,101722.09
2022-09-20T18:36:48.548Z,101714.94
2022-09-20T18:39:16.156Z,101727.47
2022-09-20T18:41:45.054Z,101726.78
2022-09-20T18:44:13.741Z,101734.44
2022-09-20T18:46:41.558Z,101736.25
2022-09-20T18:49:10.557Z,101735.22
2022-09-20T18:51:40.038Z,101746.09
2022-09-20T18:54:10.098Z,101738.78
2022-09-20T18:56:38.920Z,101742.25
2022-09-20T18:59:13.746Z,101747.44
2022-09-20T19:01:59.378Z,101753.06
2022-09-20T19:04:57.641Z,101754.47
2022-09-20T19:07:34.985Z,101748.59
2022-09-20T19:10:13.016Z,101747.94
2022-09-20T19:12:48.208Z,101763.41
2022-09-20T19:15:30.990Z,101761.53
2022-09-20T19:18:10.738Z,101764.63
2022-09-20T19:20:45.372Z,101774.00
2022-09-20T19:23:35.705Z,101770.41
2022-09-20T19:26:08.780Z,101779.63
2022-09-20T19:28:37.150Z,101774.94
2022-09-20T19:31:07.239Z,101773.03
2022-09-20T19:33:35.617Z,101777.47
2022-09-20T19:36:04.062Z,101789.16
2022-09-20T19:38:38.186Z,101784.22
2022-09-20T19:41:20.741Z,101792.09
2022-09-20T19:44:11.109Z,101796.03
2022-09-20T19:46:48.076Z,101796.03
2022-09-20T19:49:21.897Z,101807.28
2022-09-20T19:51:49.957Z,101807.63
2022-09-20T19:54:18.964Z,101799.41
2022-09-20T19:56:53.827Z,101806.03
2022-09-20T19:59:23.274Z,101804.72
2022-09-20T20:01:53.559Z,101807.09
2022-09-20T20:04:21.991Z,101810.25
2022-09-20T20:06:59.925Z,101817.19
2022-09-20T20:09:36.745Z,101816.56
2022-09-20T20:12:10.066Z,101808.31
2022-09-20T20:14:46.717Z,101814.28
2022-09-20T20:17:26.760Z,101811.09
2022-09-20T20:20:06.132Z,101814.00
2022-09-20T20:23:00.859Z,101816.91
2022-09-20T20:25:35.018Z,101810.63
2022-09-20T20:28:02.915Z,101816.59
2022-09-20T20:30:30.621Z,101823.25
2022-09-20T20:33:00.763Z,101830.88
2022-09-20T20:35:28.447Z,101824.47
2022-09-20T20:37:56.078Z,101825.31
2022-09-20T20:40:24.491Z,101832.63
2022-09-20T20:42:57.091Z,101824.66
2022-09-20T20:45:24.769Z,101828.88
2022-09-20T20:47:57.964Z,101831.09
2022-09-20T20:50:29.295Z,101833.63
2022-09-20T20:52:57.382Z,101842.34
2022-09-20T20:55:25.582Z,101838.31
2022-09-20T20:57:58.195Z,101838.19
2022-09-20T21:00:26.203Z,101843.88
2022-09-20T21:02:58.873Z,101847.97
2022-09-20T21:05:28.037Z,101840.50
2022-09-20T21:07:56.359Z,101848.47
2022-09-20T21:10:24.388Z,101849.66
2022-09-20T21:12:55.118Z,101847.47
2022-09-20T21:15:22.725Z,101853.41
2022-09-20T21:17:54.903Z,101851.25
2022-09-20T21:20:22.730Z,101861.81
2022-09-20T21:22:51.663Z,101857.59
2022-09-20T21:25:19.250Z,101854.88
2022-09-20T21:27:46.888Z,101855.22
2022-09-20T21:30:15.171Z,101865.94
2022-09-20T21:32:42.822Z,101857.63
2022-09-20T21:35:10.547Z,101863.22
2022-09-20T21:37:38.182Z,101861.69
2022-09-20T21:40:09.991Z,101866.09
2022-09-20T21:42:37.567Z,101863.97
2022-09-20T21:45:09.099Z,101872.28
2022-09-20T21:47:36.674Z,101875.66
2022-09-20T21:50:04.672Z,101871.25
2022-09-20T21:52:32.289Z,101880.06
2022-09-20T21:54:59.845Z,101888.22
2022-09-20T21:57:29.574Z,101882.59
2022-09-20T21:59:57.134Z,101884.28
2022-09-20T22:02:24.790Z,101885.13
2022-09-20T22:04:53.452Z,101888.38
2022-09-20T22:07:21.183Z,101882.09
2022-09-20T22:09:48.847Z,101884.16
2022-09-20T22:12:16.658Z,101882.34
2022-09-20T22:14:45.723Z,101885.88
2022-09-20T22:17:13.291Z,101886.06
2022-09-20T22:19:40.990Z,101893.56
2022-09-20T22:22:08.824Z,101898.31
2022-09-20T22:24:36.448Z,101893.25
2022-09-20T22:27:04.081Z,101891.88
2022-09-20T22:29:31.764Z,101890.41
2022-09-20T22:32:00.834Z,101890.22
2022-09-20T22:34:28.482Z,101893.44
2022-09-20T22:36:57.053Z,101893.75
2022-09-20T22:39:24.769Z,101889.84
2022-09-20T22:41:52.376Z,101894.78
2022-09-20T22:44:20.042Z,101904.81
2022-09-20T22:46:47.711Z,101893.94
2022-09-20T22:49:16.682Z,101895.97
2022-09-20T22:51:44.277Z,101902.59
2022-09-20T22:54:13.174Z,101896.19
2022-09-20T22:56:41.223Z,101899.41
2022-09-20T22:59:11.283Z,101899.56
2022-09-20T23:01:42.174Z,101889.56
2022-09-20T23:04:11.829Z,101899.91
2022-09-20T23:06:42.698Z,101901.63
2022-09-20T23:09:13.199Z,101901.94
2022-09-20T23:11:44.299Z,101907.41
2022-09-20T23:16:58.852Z,101903.81
2022-09-20T23:19:26.540Z,101907.72
2022-09-20T23:21:57.936Z,101901.47
2022-09-20T23:24:25.561Z,101909.63
2022-09-20T23:26:53.177Z,101906.03
2022-09-20T23:29:20.815Z,101908.09
2022-09-20T23:31:48.609Z,101906.72
2022-09-20T23:34:17.439Z,101899.78
2022-09-20T23:36:46.122Z,101908.09
2022-09-20T23:39:15.926Z,101902.50
2022-09-20T23:41:48.415Z,101905.03
2022-09-20T23:44:18.372Z,101904.00
2022-09-20T23:46:46.095Z,101908.94
2022-09-20T23:49:13.665Z,101908.94
2022-09-20T23:51:41.270Z,101920.63
2022-09-20T23:54:08.852Z,101920.31
2022-09-20T23:56:38.077Z,101917.94
2022-09-20T23:59:05.696Z,101921.19
